Time;durP1;ratioP1;P1;durP2;ratioP2;P2;SDS_P1;SDS_P2;PMS_P1;PMS_P2;Temp;Humidity;BMP_temperature;BMP_pressure;BME280_temperature;BME280_humidity;BME280_pressure;Samples;Min_cycle;Max_cycle;Signal;HPM_P1;HPM_P2
2023/09/06 00:01:08;;;;;;;2.67;1.10;;;17.50;99.90;;;;;;5057308;28;20051;-65
2023/09/06 00:03:36;;;;;;;3.95;1.30;;;17.30;99.90;;;;;;5056347;28;20080;-65
2023/09/06 00:06:03;;;;;;;3.90;1.17;;;17.40;99.90;;;;;;5058743;28;20072;-66
2023/09/06 00:08:33;;;;;;;2.55;1.60;;;17.30;99.90;;;;;;5058934;28;20087;-65
2023/09/06 00:11:04;;;;;;;5.72;1.50;;;17.30;99.90;;;;;;5072789;28;20036;-65
2023/09/06 00:13:33;;;;;;;3.38;1.55;;;17.30;99.90;;;;;;5059972;28;20071;-63
2023/09/06 00:16:03;;;;;;;4.22;1.52;;;17.30;99.90;;;;;;5060142;28;20120;-62
2023/09/06 00:18:30;;;;;;;2.40;1.30;;;17.30;99.90;;;;;;5050675;28;20060;-63
2023/09/06 00:20:57;;;;;;;8.02;1.98;;;17.20;99.90;;;;;;5044752;28;20500;-60
2023/09/06 00:23:27;;;;;;;7.50;2.00;;;17.30;99.90;;;;;;5043188;28;20045;-65
2023/09/06 00:25:56;;;;;;;3.50;1.23;;;17.30;99.90;;;;;;5057133;28;20040;-64
2023/09/06 00:28:25;;;;;;;6.35;1.08;;;17.20;99.90;;;;;;5051847;28;20041;-65
2023/09/06 00:30:52;;;;;;;6.68;1.30;;;17.30;99.90;;;;;;5049620;28;20029;-65
2023/09/06 00:33:18;;;;;;;4.10;1.20;;;17.30;99.90;;;;;;5050648;28;20040;-63
2023/09/06 00:35:43;;;;;;;;;;;17.30;99.90;;;;;;5043137;28;20687;-64
2023/09/06 00:38:10;;;;;;;3.10;1.50;;;17.30;99.90;;;;;;5040068;28;19928;-64
2023/09/06 00:40:37;;;;;;;2.13;1.15;;;17.30;99.90;;;;;;5047793;28;20724;-65
2023/09/06 00:43:08;;;;;;;5.93;1.52;;;17.30;99.90;;;;;;5050650;28;20044;-63
2023/09/06 00:45:38;;;;;;;3.35;1.50;;;17.30;99.90;;;;;;5043774;28;20059;-63
2023/09/06 00:48:05;;;;;;;10.30;1.42;;;17.30;99.90;;;;;;5052006;28;20037;-64
2023/09/06 00:50:35;;;;;;;4.20;2.03;;;17.20;99.90;;;;;;5053966;28;20153;-63
2023/09/06 00:53:03;;;;;;;2.83;1.45;;;17.10;99.90;;;;;;5052894;28;20033;-63
2023/09/06 00:55:29;;;;;;;2.25;1.42;;;17.10;99.90;;;;;;5050699;28;20663;-63
2023/09/06 00:57:54;;;;;;;;;;;17.00;99.90;;;;;;5055527;28;20118;-64
2023/09/06 01:00:24;;;;;;;6.00;1.52;;;17.00;99.90;;;;;;5051966;28;19920;-65
2023/09/06 01:02:50;;;;;;;4.68;1.30;;;16.80;99.90;;;;;;5041171;28;20645;-65
2023/09/06 01:05:16;;;;;;;;;;;16.90;99.90;;;;;;5043309;28;20775;-63
2023/09/06 01:07:47;;;;;;;5.35;1.63;;;16.90;99.90;;;;;;5050475;28;19925;-64
2023/09/06 01:10:12;;;;;;;3.50;1.30;;;16.70;99.90;;;;;;5039690;28;20550;-63
2023/09/06 01:12:38;;;;;;;;;;;16.80;99.90;;;;;;5047866;28;20045;-63
2023/09/06 01:15:04;;;;;;;1.70;1.10;;;16.80;99.90;;;;;;5048471;28;19916;-63
2023/09/06 01:17:32;;;;;;;6.20;1.20;;;16.80;99.90;;;;;;5057577;28;20679;-62
2023/09/06 01:20:15;;;;;;;3.05;1.33;;;16.90;99.90;;;;;;5044288;28;20412;-64
2023/09/06 01:22:47;;;;;;;4.90;1.30;;;16.90;99.90;;;;;;5046741;28;20428;-64
2023/09/06 01:25:14;;;;;;;5.38;1.73;;;16.90;99.90;;;;;;5056104;28;20036;-63
2023/09/06 01:27:40;;;;;;;3.90;1.33;;;16.90;99.90;;;;;;5045925;28;20116;-64
2023/09/06 01:30:07;;;;;;;;;;;16.80;99.90;;;;;;5046126;28;20519;-64
2023/09/06 01:32:32;;;;;;;3.05;1.35;;;16.80;99.90;;;;;;5048245;28;19917;-65
2023/09/06 01:34:58;;;;;;;;;;;16.80;99.90;;;;;;5047043;28;20033;-64
2023/09/06 01:37:23;;;;;;;5.45;1.40;;;16.90;99.90;;;;;;5046366;28;20455;-64
2023/09/06 01:39:49;;;;;;;4.47;1.95;;;16.80;99.90;;;;;;5053973;28;20056;-63
2023/09/06 01:42:15;;;;;;;3.42;1.38;;;16.90;99.90;;;;;;5047437;28;20452;-63
2023/09/06 01:44:40;;;;;;;;;;;16.90;99.90;;;;;;5042810;28;20985;-63
2023/09/06 01:47:06;;;;;;;3.65;1.70;;;16.90;99.90;;;;;;5058715;28;19920;-63
2023/09/06 01:49:32;;;;;;;5.95;1.73;;;17.00;99.90;;;;;;5043674;28;20037;-64
2023/09/06 01:51:59;;;;;;;;;;;17.10;99.90;;;;;;5050906;28;20067;-63
2023/09/06 01:54:25;;;;;;;4.68;1.83;;;17.10;99.90;;;;;;5037604;28;19924;-64
2023/09/06 01:56:51;;;;;;;5.60;1.58;;;17.10;99.90;;;;;;5048788;28;20458;-63
2023/09/06 01:59:17;;;;;;;;;;;17.00;99.90;;;;;;5044410;28;20459;-64
2023/09/06 02:01:42;;;;;;;5.85;1.70;;;17.00;99.90;;;;;;5054136;28;19961;-64
2023/09/06 02:04:08;;;;;;;;;;;17.00;99.90;;;;;;5042964;28;20047;-64
2023/09/06 02:06:33;;;;;;;5.35;1.42;;;17.00;99.90;;;;;;5054303;28;19925;-64
2023/09/06 02:08:59;;;;;;;;;;;16.90;99.90;;;;;;5043786;28;20046;-64
2023/09/06 02:11:25;;;;;;;5.75;1.67;;;16.90;99.90;;;;;;5057891;28;19976;-63
2023/09/06 02:13:51;;;;;;;3.67;1.67;;;16.80;99.90;;;;;;5045633;28;20048;-63
2023/09/06 02:16:18;;;;;;;4.90;1.73;;;16.80;99.90;;;;;;5053990;28;20044;-62
2023/09/06 02:18:43;;;;;;;4.53;1.75;;;16.60;99.90;;;;;;5045706;28;20048;-65
2023/09/06 02:21:09;;;;;;;;;;;16.70;99.90;;;;;;5051844;28;20403;-64
2023/09/06 02:23:35;;;;;;;2.50;1.77;;;16.60;99.90;;;;;;5043736;28;19917;-63
2023/09/06 02:26:03;;;;;;;5.32;1.50;;;16.60;99.90;;;;;;5045623;28;21438;-63
2023/09/06 02:28:28;;;;;;;6.47;1.88;;;16.50;99.90;;;;;;5049418;28;20495;-63
2023/09/06 02:30:54;;;;;;;;;;;16.60;99.90;;;;;;5047764;28;20036;-63
2023/09/06 02:33:19;;;;;;;3.03;1.85;;;16.70;99.90;;;;;;5044125;28;19924;-63
2023/09/06 02:35:45;;;;;;;3.70;1.70;;;16.70;99.90;;;;;;5046716;28;20534;-64
2023/09/06 02:38:11;;;;;;;;;;;16.60;99.90;;;;;;5048964;28;20126;-63
2023/09/06 02:40:40;;;;;;;5.93;1.98;;;16.50;99.90;;;;;;5040502;28;19912;-65
2023/09/06 02:43:06;;;;;;;8.68;1.73;;;16.40;99.90;;;;;;5043755;28;20029;-63
2023/09/06 02:45:38;;;;;;;6.65;2.28;;;16.40;99.90;;;;;;5040950;28;20045;-63
2023/09/06 02:48:15;;;;;;;6.88;1.92;;;16.40;99.90;;;;;;5047581;28;20029;-63
2023/09/06 02:50:41;;;;;;;5.75;1.88;;;16.40;99.90;;;;;;5042706;28;20558;-63
2023/09/06 02:53:19;;;;;;;;;;;16.30;99.90;;;;;;5045696;28;20116;-64
2023/09/06 02:55:51;;;;;;;;;;;16.40;99.90;;;;;;5045019;28;19917;-65
2023/09/06 02:58:18;;;;;;;5.03;2.00;;;16.30;99.90;;;;;;5052660;28;19943;-64
2023/09/06 03:00:47;;;;;;;3.45;1.92;;;16.20;99.90;;;;;;5043863;28;20454;-65
2023/09/06 03:03:15;;;;;;;5.45;2.00;;;16.20;99.90;;;;;;5044912;28;20041;-64
2023/09/06 03:05:42;;;;;;;7.60;2.00;;;16.20;99.90;;;;;;5052588;28;20492;-64
2023/09/06 03:08:08;;;;;;;7.05;2.20;;;16.10;99.90;;;;;;5046940;28;20036;-64
2023/09/06 03:10:34;;;;;;;3.42;2.00;;;16.20;99.90;;;;;;5035141;28;20041;-65
2023/09/06 03:13:00;;;;;;;4.05;1.95;;;16.10;99.90;;;;;;5040239;28;20041;-63
2023/09/06 03:15:29;;;;;;;;;;;16.10;99.90;;;;;;5043507;28;20171;-64
2023/09/06 03:17:58;;;;;;;4.05;2.10;;;16.00;99.90;;;;;;5046791;28;19920;-64
2023/09/06 03:20:32;;;;;;;5.07;2.50;;;16.00;99.90;;;;;;5049103;28;20495;-63
2023/09/06 03:23:38;;;;;;;7.72;1.90;;;16.00;99.90;;;;;;5049573;28;20055;-64
2023/09/06 03:25:57;;;;;;;6.68;1.80;;;15.90;99.90;;;;;;5051639;28;20060;-63
2023/09/06 03:28:28;;;;;;;5.15;1.95;;;15.90;99.90;;;;;;5043588;28;20045;-64
2023/09/06 03:30:58;;;;;;;4.47;2.35;;;15.90;99.90;;;;;;5050273;28;20813;-63
2023/09/06 03:33:25;;;;;;;5.03;2.40;;;15.90;99.90;;;;;;5044956;28;20176;-65
2023/09/06 03:35:50;;;;;;;6.45;2.30;;;15.90;99.90;;;;;;5053060;28;20068;-64
2023/09/06 03:38:17;;;;;;;;;;;15.90;99.90;;;;;;5049320;28;20365;-64
2023/09/06 03:40:46;;;;;;;4.13;2.00;;;15.90;99.90;;;;;;5053362;28;19917;-64
2023/09/06 03:43:15;;;;;;;2.33;1.67;;;15.90;99.90;;;;;;5045338;28;20550;-64
2023/09/06 03:45:51;;;;;;;4.63;2.10;;;15.90;99.90;;;;;;5042827;28;20455;-64
2023/09/06 03:48:19;;;;;;;4.70;2.38;;;15.80;99.90;;;;;;5055592;28;20514;-65
2023/09/06 03:50:46;;;;;;;3.35;2.42;;;15.90;99.90;;;;;;5054741;28;20728;-64
2023/09/06 03:53:13;;;;;;;3.28;2.05;;;16.00;99.90;;;;;;5055842;28;20549;-64
2023/09/06 03:55:41;;;;;;;3.78;1.80;;;15.90;99.90;;;;;;5048318;28;20419;-63
2023/09/06 03:58:07;;;;;;;8.40;2.50;;;15.90;99.90;;;;;;5045291;28;20048;-65
2023/09/06 04:00:33;;;;;;;;;;;15.80;99.90;;;;;;5055462;28;20036;-64
2023/09/06 04:02:59;;;;;;;4.88;2.15;;;15.80;99.90;;;;;;5058331;28;20027;-64
2023/09/06 04:05:28;;;;;;;;;;;15.80;99.90;;;;;;5055495;28;21345;-62
2023/09/06 04:07:56;;;;;;;3.50;2.03;;;15.80;99.90;;;;;;5053717;28;19921;-65
2023/09/06 04:10:23;;;;;;;3.20;2.22;;;15.80;99.90;;;;;;5054618;28;20040;-64
2023/09/06 04:12:53;;;;;;;5.30;2.10;;;15.70;99.90;;;;;;5057335;28;20037;-64
2023/09/06 04:15:21;;;;;;;5.03;2.33;;;15.70;99.90;;;;;;5047709;28;20103;-64
2023/09/06 04:17:57;;;;;;;5.63;2.10;;;15.60;99.90;;;;;;5048711;28;20064;-64
2023/09/06 04:20:36;;;;;;;6.50;1.98;;;15.70;99.90;;;;;;5047304;28;20044;-65
2023/09/06 04:23:11;;;;;;;5.72;2.10;;;15.60;99.90;;;;;;5055395;28;20652;-63
2023/09/06 04:25:44;;;;;;;5.80;2.63;;;15.60;99.90;;;;;;5044320;28;20049;-65
2023/09/06 04:28:12;;;;;;;13.20;2.38;;;15.50;99.90;;;;;;5054060;28;20036;-63
2023/09/06 04:30:41;;;;;;;4.05;2.38;;;15.50;99.90;;;;;;5048679;28;20047;-64
2023/09/06 04:33:12;;;;;;;4.13;2.47;;;15.50;99.90;;;;;;5049083;28;20037;-65
2023/09/06 04:35:42;;;;;;;4.43;2.20;;;15.50;99.90;;;;;;5046460;28;20492;-64
2023/09/06 04:38:09;;;;;;;6.20;2.90;;;15.40;99.90;;;;;;5057674;28;20095;-66
2023/09/06 04:40:35;;;;;;;5.25;2.05;;;15.40;99.90;;;;;;5054157;28;20125;-65
2023/09/06 04:43:01;;;;;;;3.05;2.10;;;15.30;99.90;;;;;;5057889;28;21242;-64
2023/09/06 04:45:27;;;;;;;;;;;15.30;99.90;;;;;;5046853;28;20040;-63
2023/09/06 04:47:52;;;;;;;4.50;2.35;;;15.30;99.90;;;;;;5055018;28;20015;-64
2023/09/06 04:50:18;;;;;;;6.05;2.58;;;15.30;99.90;;;;;;5054673;28;20043;-65
2023/09/06 04:52:46;;;;;;;4.03;2.42;;;15.30;99.90;;;;;;5046985;28;20469;-64
2023/09/06 04:55:15;;;;;;;5.35;2.65;;;15.20;99.90;;;;;;5045873;28;20032;-64
2023/09/06 04:57:45;;;;;;;4.82;2.70;;;15.30;99.90;;;;;;5050729;28;20388;-65
2023/09/06 05:00:19;;;;;;;9.65;2.50;;;15.30;99.90;;;;;;5047020;28;20051;-64
2023/09/06 05:02:46;;;;;;;6.78;2.72;;;15.30;99.90;;;;;;5052857;28;20045;-64
2023/09/06 05:05:14;;;;;;;4.93;2.20;;;15.30;99.90;;;;;;5046889;28;20072;-64
2023/09/06 05:07:40;;;;;;;3.03;1.90;;;15.30;99.90;;;;;;5051762;28;20045;-65
2023/09/06 05:10:08;;;;;;;5.93;2.30;;;15.30;99.90;;;;;;5047269;28;20468;-64
2023/09/06 05:12:33;;;;;;;5.93;2.88;;;15.40;99.90;;;;;;5053245;28;20076;-65
2023/09/06 05:15:00;;;;;;;;;;;15.50;99.90;;;;;;5042134;28;20077;-64
2023/09/06 05:17:26;;;;;;;7.80;4.85;;;15.90;99.90;;;;;;5045799;28;19921;-65
2023/09/06 05:19:54;;;;;;;;;;;16.60;99.90;;;;;;5033933;28;20056;-65
2023/09/06 05:22:22;;;;;;;8.73;3.30;;;16.90;99.90;;;;;;5047440;28;19917;-64
2023/09/06 05:24:49;;;;;;;8.98;2.38;;;17.70;99.90;;;;;;5047034;28;20044;-64
2023/09/06 05:27:17;;;;;;;9.30;2.40;;;18.60;99.90;;;;;;5044234;28;20073;-65
2023/09/06 05:29:43;;;;;;;3.80;2.30;;;19.30;99.90;;;;;;5044066;28;20053;-63
2023/09/06 05:32:08;;;;;;;;;;;19.50;99.90;;;;;;5042372;28;20045;-63
2023/09/06 05:34:34;;;;;;;5.72;2.25;;;19.20;99.90;;;;;;5041615;28;19936;-65
2023/09/06 05:37:00;;;;;;;3.72;2.20;;;18.90;99.90;;;;;;5046540;28;20037;-62
2023/09/06 05:39:25;;;;;;;4.82;2.20;;;18.90;99.90;;;;;;5037359;28;20033;-64
2023/09/06 05:41:53;;;;;;;4.35;2.22;;;19.50;99.90;;;;;;5045084;28;20078;-65
2023/09/06 05:44:19;;;;;;;4.68;2.83;;;19.30;99.90;;;;;;5037253;28;20440;-65
2023/09/06 05:46:45;;;;;;;5.18;2.30;;;18.80;99.90;;;;;;5047462;28;20068;-64
2023/09/06 05:49:10;;;;;;;;;;;18.40;99.90;;;;;;5041027;28;20553;-64
2023/09/06 05:51:36;;;;;;;7.70;2.60;;;18.10;99.90;;;;;;5049732;28;20011;-65
2023/09/06 05:54:02;;;;;;;5.18;2.78;;;17.90;99.90;;;;;;5042050;28;20041;-64
2023/09/06 05:56:27;;;;;;;3.88;2.45;;;17.90;99.90;;;;;;5058243;28;20244;-65
2023/09/06 05:58:56;;;;;;;4.63;2.58;;;17.70;99.90;;;;;;5045169;28;20045;-62
2023/09/06 06:01:21;;;;;;;6.65;2.75;;;17.70;99.90;;;;;;5048335;28;20044;-63
2023/09/06 06:03:47;;;;;;;;;;;17.70;99.90;;;;;;5046667;28;20265;-65
2023/09/06 06:06:16;;;;;;;5.50;2.47;;;17.80;99.90;;;;;;5040919;28;19924;-64
2023/09/06 06:08:41;;;;;;;4.25;2.08;;;18.50;99.90;;;;;;5037600;28;20051;-63
2023/09/06 06:11:08;;;;;;;;;;;19.00;99.90;;;;;;5045047;28;20041;-64
2023/09/06 06:13:34;;;;;;;4.57;2.20;;;19.20;99.90;;;;;;5039907;28;20035;-63
2023/09/06 06:16:00;;;;;;;5.07;2.42;;;19.90;99.90;;;;;;5035539;28;20044;-63
2023/09/06 06:18:26;;;;;;;8.60;2.70;;;19.90;99.90;;;;;;5045163;28;20142;-61
2023/09/06 06:20:53;;;;;;;6.38;2.58;;;19.70;99.90;;;;;;5050237;28;20555;-66
2023/09/06 06:23:18;;;;;;;13.75;2.30;;;19.30;99.90;;;;;;5041720;28;20040;-63
2023/09/06 06:25:44;;;;;;;4.57;2.38;;;18.90;99.90;;;;;;5042106;28;20511;-65
2023/09/06 06:28:09;;;;;;;7.22;2.85;;;18.60;99.90;;;;;;5044786;28;20127;-64
2023/09/06 06:30:35;;;;;;;4.68;2.67;;;18.60;99.90;;;;;;5040343;28;20064;-60
2023/09/06 06:33:01;;;;;;;3.85;2.50;;;18.50;99.90;;;;;;5044410;28;20079;-63
2023/09/06 06:35:27;;;;;;;3.80;2.58;;;18.50;99.90;;;;;;5043241;28;20040;-62
2023/09/06 06:37:53;;;;;;;9.50;3.00;;;18.40;99.90;;;;;;5041134;28;20076;-62
2023/09/06 06:40:18;;;;;;;6.05;2.63;;;18.40;99.90;;;;;;5042238;28;20554;-62
2023/09/06 06:42:44;;;;;;;;;;;18.40;99.90;;;;;;5050704;28;20033;-64
2023/09/06 06:45:11;;;;;;;5.53;2.65;;;18.40;99.90;;;;;;5037600;28;19920;-63
2023/09/06 06:47:36;;;;;;;5.50;2.83;;;18.40;99.90;;;;;;5044689;28;20048;-63
2023/09/06 06:50:14;;;;;;;;;;;18.20;99.90;;;;;;5043542;28;21153;-63
2023/09/06 06:52:44;;;;;;;9.00;3.58;;;18.20;99.90;;;;;;5041219;28;19940;-62
2023/09/06 06:55:10;;;;;;;7.00;3.00;;;18.20;99.90;;;;;;5037543;28;20049;-63
2023/09/06 06:57:35;;;;;;;10.57;2.60;;;18.30;99.90;;;;;;5052512;28;20041;-64
2023/09/06 07:00:05;;;;;;;;;;;18.20;99.90;;;;;;5037787;28;20406;-64
2023/09/06 07:02:31;;;;;;;7.70;3.08;;;18.20;99.90;;;;;;5042916;28;20016;-64
2023/09/06 07:04:57;;;;;;;;;;;18.30;99.90;;;;;;5039196;28;20575;-63
2023/09/06 07:07:24;;;;;;;7.25;3.20;;;18.40;99.90;;;;;;5043763;28;19935;-64
2023/09/06 07:09:50;;;;;;;5.72;2.50;;;18.40;99.90;;;;;;5074069;28;20120;-61
2023/09/06 07:12:16;;;;;;;;;;;18.40;99.90;;;;;;5051988;28;20124;-64
2023/09/06 07:14:42;;;;;;;13.73;2.88;;;18.50;99.90;;;;;;5041111;28;19947;-63
2023/09/06 07:17:07;;;;;;;5.93;3.13;;;18.50;99.90;;;;;;5053151;28;20037;-63
2023/09/06 07:19:33;;;;;;;8.65;3.28;;;18.50;99.90;;;;;;5037243;28;20756;-64
2023/09/06 07:22:00;;;;;;;4.18;2.63;;;18.60;99.90;;;;;;5044406;28;20696;-64
2023/09/06 07:24:25;;;;;;;9.85;3.28;;;18.70;99.90;;;;;;5038504;28;20237;-61
2023/09/06 07:26:51;;;;;;;;;;;18.80;99.90;;;;;;5041985;28;20416;-64
2023/09/06 07:29:18;;;;;;;5.55;2.90;;;18.90;99.90;;;;;;5043000;28;19966;-64
2023/09/06 07:31:44;;;;;;;6.68;2.80;;;19.00;99.90;;;;;;5051208;28;20306;-64
2023/09/06 07:34:10;;;;;;;6.75;2.88;;;19.10;99.90;;;;;;5045506;28;20033;-63
2023/09/06 07:36:35;;;;;;;;;;;19.20;99.90;;;;;;5044041;28;20551;-63
2023/09/06 07:39:01;;;;;;;11.10;2.88;;;19.20;99.90;;;;;;5039739;28;19920;-64
2023/09/06 07:41:27;;;;;;;6.57;2.72;;;19.30;99.90;;;;;;5053430;28;20079;-63
2023/09/06 07:43:52;;;;;;;7.68;2.70;;;19.40;99.90;;;;;;5042162;28;20041;-64
2023/09/06 07:46:18;;;;;;;;;;;19.50;99.90;;;;;;5050166;28;20049;-64
2023/09/06 07:48:44;;;;;;;6.45;2.60;;;19.60;99.90;;;;;;5049559;28;19920;-63
2023/09/06 07:51:10;;;;;;;4.20;2.78;;;19.70;99.90;;;;;;5049941;28;20733;-63
2023/09/06 07:53:37;;;;;;;5.38;2.45;;;19.70;99.90;;;;;;5040291;28;20072;-64
2023/09/06 07:56:05;;;;;;;5.95;2.63;;;19.80;99.90;;;;;;5046742;28;20037;-65
2023/09/06 07:58:31;;;;;;;4.05;2.67;;;20.00;99.90;;;;;;5047453;28;20037;-63
2023/09/06 08:00:57;;;;;;;;;;;20.10;99.90;;;;;;5051318;28;20041;-61
2023/09/06 08:03:23;;;;;;;3.63;2.28;;;20.20;99.90;;;;;;5040474;28;19921;-63
2023/09/06 08:05:48;;;;;;;7.13;2.65;;;20.50;99.90;;;;;;5049984;28;20051;-63
2023/09/06 08:08:14;;;;;;;8.32;2.70;;;21.60;99.90;;;;;;5048085;28;20037;-64
2023/09/06 08:10:40;;;;;;;4.18;2.75;;;22.50;99.90;;;;;;5045544;28;20037;-63
2023/09/06 08:13:06;;;;;;;8.93;2.75;;;23.10;99.90;;;;;;5039952;28;20378;-64
2023/09/06 08:15:33;;;;;;;3.78;2.88;;;24.20;99.90;;;;;;5047739;28;20044;-66
2023/09/06 08:17:59;;;;;;;3.80;2.30;;;25.70;98.90;;;;;;5041527;28;20500;-65
2023/09/06 08:20:25;;;;;;;3.10;2.25;;;27.30;97.50;;;;;;5064378;28;20037;-65
2023/09/06 08:22:51;;;;;;;3.33;2.25;;;28.50;94.00;;;;;;5052888;28;20048;-64
2023/09/06 08:25:18;;;;;;;5.93;2.72;;;29.40;91.80;;;;;;5041803;28;20037;-64
2023/09/06 08:27:44;;;;;;;2.95;1.95;;;29.90;90.00;;;;;;5049508;28;20044;-64
2023/09/06 08:30:12;;;;;;;5.93;2.35;;;30.20;86.30;;;;;;5051324;28;20037;-64
2023/09/06 08:32:42;;;;;;;3.53;2.13;;;30.10;82.10;;;;;;5049668;28;20071;-64
2023/09/06 08:35:09;;;;;;;4.97;2.40;;;29.50;80.70;;;;;;5044386;28;20371;-64
2023/09/06 08:37:35;;;;;;;7.53;2.30;;;28.80;84.60;;;;;;5054360;28;20547;-64
2023/09/06 08:40:07;;;;;;;2.97;2.33;;;27.70;87.90;;;;;;5039584;28;20133;-64
2023/09/06 08:42:34;;;;;;;4.97;2.30;;;26.70;88.20;;;;;;5057160;28;20041;-63
2023/09/06 08:45:02;;;;;;;3.33;2.50;;;25.90;88.20;;;;;;5046754;28;20044;-60
2023/09/06 08:47:28;;;;;;;3.22;2.10;;;25.30;91.40;;;;;;5046640;28;20048;-65
2023/09/06 08:49:54;;;;;;;8.13;2.53;;;24.80;92.20;;;;;;5041725;28;20510;-64
2023/09/06 08:52:20;;;;;;;4.00;2.95;;;24.70;93.70;;;;;;5045198;28;20115;-63
2023/09/06 08:54:48;;;;;;;4.05;2.28;;;24.40;94.00;;;;;;5039294;28;20059;-66
2023/09/06 08:57:15;;;;;;;6.47;2.60;;;24.10;91.90;;;;;;5050991;28;20045;-65
2023/09/06 08:59:41;;;;;;;3.00;2.20;;;24.00;92.60;;;;;;5044467;28;20040;-65
2023/09/06 09:02:12;;;;;;;5.78;2.55;;;24.00;93.30;;;;;;5040786;28;20555;-64
2023/09/06 09:04:42;;;;;;;5.72;2.50;;;23.90;93.60;;;;;;5038048;28;20075;-64
2023/09/06 09:07:13;;;;;;;3.10;2.22;;;23.90;91.40;;;;;;5053745;28;20400;-63
2023/09/06 09:10:14;;;;;;;2.97;2.10;;;23.80;92.80;;;;;;5041587;28;20049;-63
2023/09/06 09:12:40;;;;;;;3.05;2.40;;;23.80;92.00;;;;;;4982145;28;20129;-64
2023/09/06 09:15:07;;;;;;;14.82;3.05;;;23.70;91.00;;;;;;5025218;28;20623;-65
2023/09/06 09:17:34;;;;;;;5.47;3.00;;;23.70;92.70;;;;;;5035480;28;20037;-64
2023/09/06 09:20:00;;;;;;;5.13;2.15;;;23.90;92.80;;;;;;5033884;28;20043;-63
2023/09/06 09:22:30;;;;;;;4.00;2.10;;;23.90;92.00;;;;;;5037414;28;20044;-65
2023/09/06 09:25:02;;;;;;;3.40;2.40;;;24.10;93.40;;;;;;5047682;28;20449;-64
2023/09/06 09:27:28;;;;;;;2.63;1.92;;;24.20;92.60;;;;;;5041398;28;20095;-63
2023/09/06 09:29:59;;;;;;;6.97;2.90;;;24.30;92.20;;;;;;5036856;28;20041;-65
2023/09/06 09:32:25;;;;;;;5.47;2.50;;;24.40;92.20;;;;;;5045055;28;20037;-61
2023/09/06 09:34:52;;;;;;;3.55;2.30;;;24.40;91.00;;;;;;5044286;28;20109;-64
2023/09/06 09:37:19;;;;;;;6.07;3.15;;;24.50;91.90;;;;;;5047896;28;20033;-62
2023/09/06 09:39:44;;;;;;;4.05;2.78;;;24.60;91.10;;;;;;5040818;28;20070;-64
2023/09/06 09:42:11;;;;;;;3.97;2.28;;;24.60;90.80;;;;;;5048383;28;20484;-63
2023/09/06 09:44:38;;;;;;;3.30;2.10;;;24.70;91.10;;;;;;5036107;28;20463;-63
2023/09/06 09:47:14;;;;;;;3.83;2.40;;;24.80;91.60;;;;;;5043672;28;20049;-62
2023/09/06 09:49:41;;;;;;;3.63;2.05;;;24.80;92.30;;;;;;5041833;28;20037;-64
2023/09/06 09:52:17;;;;;;;3.22;1.85;;;24.90;91.00;;;;;;5035844;28;20034;-63
2023/09/06 09:54:47;;;;;;;5.35;2.35;;;25.00;90.10;;;;;;5043860;28;20032;-64
2023/09/06 09:57:14;;;;;;;3.25;2.10;;;25.00;90.20;;;;;;5049787;28;20044;-65
2023/09/06 09:59:40;;;;;;;5.43;2.30;;;24.90;91.00;;;;;;5046352;28;20041;-64
2023/09/06 10:02:09;;;;;;;3.65;2.35;;;25.00;91.40;;;;;;5059706;28;20040;-65
2023/09/06 10:04:37;;;;;;;5.35;1.90;;;25.10;91.20;;;;;;5042217;28;20428;-64
2023/09/06 10:07:08;;;;;;;6.15;2.70;;;25.10;92.30;;;;;;5056896;28;20483;-64
2023/09/06 10:09:37;;;;;;;4.43;2.65;;;25.20;92.20;;;;;;5041706;28;20399;-63
2023/09/06 10:12:07;;;;;;;4.45;2.22;;;25.20;91.80;;;;;;5050566;28;20120;-62
2023/09/06 10:14:33;;;;;;;3.65;2.67;;;25.20;92.00;;;;;;5043694;28;20037;-64
2023/09/06 10:17:00;;;;;;;17.42;3.72;;;25.30;93.10;;;;;;5044838;28;20036;-63
2023/09/06 10:19:27;;;;;;;5.43;3.03;;;25.30;92.60;;;;;;5039585;28;20567;-64
2023/09/06 10:21:53;;;;;;;5.88;2.50;;;25.40;91.90;;;;;;5055258;28;20036;-64
2023/09/06 10:24:21;;;;;;;4.78;2.58;;;25.50;92.80;;;;;;5041149;28;20628;-64
2023/09/06 10:26:48;;;;;;;5.72;2.08;;;25.50;92.30;;;;;;5053030;28;20048;-64
2023/09/06 10:29:21;;;;;;;2.90;2.00;;;25.70;92.00;;;;;;5043499;28;20037;-63
2023/09/06 10:31:48;;;;;;;4.63;2.10;;;25.70;92.50;;;;;;5056026;28;20036;-63
2023/09/06 10:34:15;;;;;;;3.35;2.28;;;25.70;92.80;;;;;;5045807;28;20029;-63
2023/09/06 10:37:00;;;;;;;3.00;2.15;;;25.80;91.80;;;;;;5054953;28;20098;-66
2023/09/06 10:39:28;;;;;;;4.35;2.35;;;25.80;91.40;;;;;;5034163;28;20136;-66
2023/09/06 10:42:13;;;;;;;4.28;2.22;;;25.60;91.20;;;;;;5045402;28;20335;-64
2023/09/06 10:44:54;;;;;;;2.63;2.30;;;25.40;92.80;;;;;;5040556;28;20174;-63
2023/09/06 10:47:33;;;;;;;4.43;2.88;;;25.50;92.00;;;;;;5048000;28;20040;-62
2023/09/06 10:50:21;;;;;;;6.57;2.22;;;25.50;93.50;;;;;;5042876;28;20805;-65
2023/09/06 10:52:53;;;;;;;3.53;2.30;;;25.60;91.40;;;;;;5048809;28;20152;-63
2023/09/06 10:55:26;;;;;;;2.70;2.25;;;25.70;92.00;;;;;;5039996;28;20093;-65
2023/09/06 10:57:58;;;;;;;3.00;2.17;;;25.70;92.30;;;;;;5046283;28;20040;-63
2023/09/06 11:00:27;;;;;;;3.25;2.20;;;25.80;92.60;;;;;;5049041;28;20956;-64
2023/09/06 11:04:09;;;;;;;;;;;;;;;;;;;;;
2023/09/06 11:06:54;;;;;;;4.13;2.50;;;26.00;91.60;;;;;;5046264;28;20130;-64
2023/09/06 11:09:22;;;;;;;4.75;2.40;;;26.10;92.50;;;;;;5039725;28;21436;-63
2023/09/06 11:11:51;;;;;;;4.18;2.03;;;26.10;92.20;;;;;;5046269;28;20270;-63
2023/09/06 11:14:27;;;;;;;2.63;1.73;;;26.20;91.40;;;;;;5040266;28;20041;-63
2023/09/06 11:16:56;;;;;;;7.47;2.42;;;26.20;90.40;;;;;;5055860;28;20044;-63
2023/09/06 11:19:31;;;;;;;2.75;1.85;;;26.30;89.30;;;;;;5041587;28;20045;-64
2023/09/06 11:22:08;;;;;;;3.47;1.95;;;26.40;88.60;;;;;;5052156;28;20037;-64
2023/09/06 11:24:37;;;;;;;4.05;2.00;;;26.30;86.40;;;;;;5037187;28;20040;-63
2023/09/06 11:27:24;;;;;;;2.60;1.92;;;26.20;90.00;;;;;;5043553;28;20056;-63
2023/09/06 11:30:09;;;;;;;3.08;1.80;;;26.20;90.50;;;;;;5037337;28;20087;-63
2023/09/06 11:32:35;;;;;;;5.28;2.20;;;26.00;86.10;;;;;;5040990;28;20700;-64
2023/09/06 11:35:03;;;;;;;4.45;2.20;;;26.10;87.90;;;;;;5047479;28;20540;-63
2023/09/06 11:37:30;;;;;;;4.60;1.77;;;26.20;89.20;;;;;;5051708;28;20074;-63
2023/09/06 11:39:57;;;;;;;2.78;1.90;;;26.30;85.90;;;;;;5040069;28;20088;-64
2023/09/06 11:42:24;;;;;;;2.97;2.08;;;26.40;89.80;;;;;;5047527;28;20048;-63
2023/09/06 11:44:53;;;;;;;4.60;2.58;;;26.40;89.40;;;;;;5035589;28;20056;-64
2023/09/06 11:47:24;;;;;;;2.30;1.83;;;26.40;89.40;;;;;;5045861;28;20040;-64
2023/09/06 11:49:49;;;;;;;3.72;2.22;;;26.60;90.10;;;;;;5042606;28;20846;-64
2023/09/06 11:52:18;;;;;;;4.03;1.77;;;26.70;86.70;;;;;;5047486;28;20082;-64
2023/09/06 11:54:49;;;;;;;2.33;1.77;;;26.80;89.50;;;;;;5036454;28;20044;-63
2023/09/06 11:57:27;;;;;;;2.35;1.60;;;26.80;87.60;;;;;;5036653;28;20083;-63
2023/09/06 11:59:57;;;;;;;2.75;1.73;;;26.80;87.50;;;;;;5037026;28;20055;-64
2023/09/06 12:02:32;;;;;;;2.58;1.67;;;27.00;89.40;;;;;;5040566;28;20079;-63
2023/09/06 12:05:00;;;;;;;2.78;1.85;;;26.90;85.30;;;;;;5047956;28;20052;-63
2023/09/06 12:07:26;;;;;;;3.20;1.80;;;26.90;85.90;;;;;;5049159;28;20052;-65
2023/09/06 12:09:56;;;;;;;3.03;1.90;;;26.60;85.20;;;;;;5040923;28;20132;-65
2023/09/06 12:12:21;;;;;;;2.08;1.40;;;26.50;83.50;;;;;;5042375;28;20742;-65
2023/09/06 12:14:47;;;;;;;4.40;1.30;;;26.40;81.30;;;;;;5042924;28;20060;-66
2023/09/06 12:17:14;;;;;;;2.75;1.90;;;26.30;82.40;;;;;;5056637;28;20040;-65
2023/09/06 12:19:39;;;;;;;6.10;1.52;;;26.20;84.20;;;;;;5047293;28;20041;-63
2023/09/06 12:22:05;;;;;;;2.50;1.42;;;26.30;83.00;;;;;;5050588;28;20059;-64
2023/09/06 12:24:33;;;;;;;3.08;1.52;;;26.40;83.80;;;;;;5046422;28;20041;-64
2023/09/06 12:27:00;;;;;;;2.58;1.65;;;26.50;85.00;;;;;;5049665;28;20344;-63
2023/09/06 12:29:26;;;;;;;2.63;1.50;;;26.60;83.00;;;;;;5050357;28;20053;-62
2023/09/06 12:31:52;;;;;;;4.63;1.67;;;26.80;83.90;;;;;;5055005;28;20618;-64
2023/09/06 12:34:18;;;;;;;2.55;1.50;;;26.80;83.20;;;;;;5047220;28;20787;-63
2023/09/06 12:36:47;;;;;;;2.83;1.73;;;26.90;84.80;;;;;;5091460;28;20049;-64
2023/09/06 12:39:13;;;;;;;4.15;1.48;;;26.90;83.50;;;;;;5050707;28;20178;-65
2023/09/06 12:41:39;;;;;;;1.95;1.40;;;27.00;86.20;;;;;;5055262;28;20120;-63
2023/09/06 12:44:06;;;;;;;3.08;1.50;;;27.10;82.30;;;;;;5045274;28;20598;-63
2023/09/06 12:46:32;;;;;;;2.85;1.75;;;27.20;81.40;;;;;;5058886;28;20052;-63
2023/09/06 12:48:58;;;;;;;3.00;1.98;;;27.20;81.10;;;;;;5053979;28;20064;-64
2023/09/06 12:51:23;;;;;;;2.33;1.48;;;27.20;80.40;;;;;;5055229;28;20044;-62
2023/09/06 12:53:49;;;;;;;5.65;1.58;;;27.00;80.50;;;;;;5051028;28;20041;-65
2023/09/06 12:56:15;;;;;;;3.63;1.70;;;26.90;80.90;;;;;;5053447;28;20048;-63
2023/09/06 12:58:41;;;;;;;3.55;1.50;;;26.80;82.30;;;;;;5061023;28;20041;-62
2023/09/06 13:01:10;;;;;;;4.22;1.35;;;26.80;83.70;;;;;;5051466;28;20068;-62
2023/09/06 13:03:36;;;;;;;5.53;1.90;;;26.90;84.00;;;;;;5048511;28;20040;-61